createdAt,value
2022-08-30T00:00:07.196Z,1.30
2022-08-30T00:01:07.146Z,1.20
2022-08-30T00:02:07.179Z,1.60
2022-08-30T00:03:07.224Z,1.20
2022-08-30T00:04:07.149Z,1.50
2022-08-30T00:05:07.148Z,0.90
2022-08-30T00:06:07.109Z,1.40
2022-08-30T00:07:07.088Z,1.30
2022-08-30T00:08:07.080Z,1.50
2022-08-30T00:09:07.077Z,1.20
2022-08-30T00:10:07.071Z,1.30
2022-08-30T00:11:07.078Z,1.20
2022-08-30T00:12:07.071Z,1.00
2022-08-30T00:13:07.032Z,1.50
2022-08-30T00:14:07.025Z,1.20
2022-08-30T00:15:07.018Z,1.60
2022-08-30T00:16:07.213Z,1.20
2022-08-30T00:17:07.006Z,1.10
2022-08-30T00:18:06.992Z,1.10
2022-08-30T00:19:06.971Z,1.40
2022-08-30T00:20:07.003Z,1.50
2022-08-30T00:21:06.970Z,1.50
2022-08-30T00:22:06.948Z,1.10
2022-08-30T00:23:06.918Z,1.20
2022-08-30T00:24:06.918Z,1.20
2022-08-30T00:25:06.929Z,0.90
2022-08-30T00:26:06.901Z,1.20
2022-08-30T00:27:06.931Z,1.20
2022-08-30T00:28:06.889Z,1.50
2022-08-30T00:29:06.879Z,1.40
2022-08-30T00:30:06.872Z,1.00
2022-08-30T00:31:06.903Z,1.30
2022-08-30T00:32:06.869Z,1.20
2022-08-30T00:33:06.851Z,1.10
2022-08-30T00:34:06.820Z,1.30
2022-08-30T00:35:06.809Z,1.30
2022-08-30T00:36:06.799Z,1.30
2022-08-30T00:37:06.787Z,1.00
2022-08-30T00:38:06.780Z,1.30
2022-08-30T00:39:06.788Z,1.30
2022-08-30T00:40:06.807Z,1.30
2022-08-30T00:41:06.820Z,1.40
2022-08-30T00:42:06.762Z,1.30
2022-08-30T00:43:06.732Z,1.50
2022-08-30T00:44:06.741Z,1.40
2022-08-30T00:45:06.713Z,1.30
2022-08-30T00:46:06.707Z,1.30
2022-08-30T00:47:06.702Z,1.30
2022-08-30T00:48:06.683Z,1.40
2022-08-30T00:49:06.676Z,1.50
2022-08-30T00:50:06.684Z,1.40
2022-08-30T00:51:06.640Z,1.20
2022-08-30T00:52:06.641Z,1.40
2022-08-30T00:53:06.669Z,1.20
2022-08-30T00:54:06.620Z,1.20
2022-08-30T00:55:06.606Z,1.00
2022-08-30T00:56:06.673Z,1.20
2022-08-30T00:57:06.601Z,1.10
2022-08-30T00:58:06.573Z,1.00
2022-08-30T00:59:06.571Z,1.40
2022-08-30T01:00:07.523Z,1.40
2022-08-30T01:01:06.618Z,1.10
2022-08-30T01:02:06.563Z,1.10
2022-08-30T01:03:06.533Z,1.40
2022-08-30T01:04:06.524Z,1.10
2022-08-30T01:05:06.504Z,1.20
2022-08-30T01:06:06.492Z,1.10
2022-08-30T01:07:06.471Z,1.50
2022-08-30T01:08:06.494Z,1.40
2022-08-30T01:09:06.502Z,1.60
2022-08-30T01:10:06.452Z,1.40
2022-08-30T01:11:06.443Z,1.10
2022-08-30T01:12:06.494Z,1.40
2022-08-30T01:13:06.458Z,1.30
2022-08-30T01:14:06.415Z,1.20
2022-08-30T01:15:06.423Z,1.20
2022-08-30T01:16:06.456Z,1.40
2022-08-30T01:17:06.385Z,1.30
2022-08-30T01:18:07.907Z,1.20
2022-08-30T01:19:06.365Z,1.10
2022-08-30T01:20:06.365Z,1.50
2022-08-30T01:21:06.346Z,1.20
2022-08-30T01:22:06.335Z,1.30
2022-08-30T01:23:06.336Z,1.60
2022-08-30T01:24:06.338Z,0.90
2022-08-30T01:25:08.194Z,1.30
2022-08-30T01:26:06.305Z,0.90
2022-08-30T01:27:06.296Z,0.60
2022-08-30T01:28:06.297Z,1.00
2022-08-30T01:29:06.265Z,1.10
2022-08-30T01:30:06.259Z,1.70
2022-08-30T01:31:06.375Z,1.10
2022-08-30T01:32:06.235Z,1.10
2022-08-30T01:33:06.214Z,1.10
2022-08-30T01:34:06.234Z,1.40
2022-08-30T01:35:06.293Z,1.20
2022-08-30T01:36:06.253Z,1.30
2022-08-30T01:37:06.216Z,1.80
2022-08-30T01:38:06.198Z,1.40
2022-08-30T01:39:06.246Z,1.20
2022-08-30T01:40:06.194Z,1.50
2022-08-30T01:41:06.807Z,1.50
2022-08-30T01:42:06.139Z,1.10
2022-08-30T01:43:06.129Z,1.30
2022-08-30T01:44:06.126Z,1.20
2022-08-30T01:45:06.127Z,1.30
2022-08-30T01:46:06.165Z,1.40
2022-08-30T01:47:06.115Z,1.20
2022-08-30T01:48:06.776Z,1.10
2022-08-30T01:49:06.712Z,1.20
2022-08-30T01:50:06.064Z,1.60
2022-08-30T01:51:06.056Z,1.30
2022-08-30T01:52:06.066Z,1.10
2022-08-30T01:53:06.016Z,1.10
2022-08-30T01:54:06.018Z,1.40
2022-08-30T01:55:06.017Z,1.50
2022-08-30T01:56:06.158Z,1.60
2022-08-30T01:57:06.028Z,1.30
2022-08-30T01:58:05.998Z,1.40
2022-08-30T01:59:05.988Z,1.00
2022-08-30T02:00:05.988Z,1.30
2022-08-30T02:01:05.989Z,1.30
2022-08-30T02:02:05.936Z,1.30
2022-08-30T02:03:05.927Z,1.10
2022-08-30T02:04:05.989Z,1.30
2022-08-30T02:05:05.906Z,1.20
2022-08-30T02:06:05.887Z,1.30
2022-08-30T02:07:05.889Z,1.40
2022-08-30T02:08:05.877Z,1.40
2022-08-30T02:09:05.867Z,1.80
2022-08-30T02:10:05.889Z,1.20
2022-08-30T02:11:05.859Z,1.50
2022-08-30T02:12:05.838Z,1.00
2022-08-30T02:13:05.821Z,1.10
2022-08-30T02:14:05.815Z,1.30
2022-08-30T02:15:05.820Z,1.10
2022-08-30T02:16:05.801Z,1.20
2022-08-30T02:17:05.798Z,1.30
2022-08-30T02:18:05.768Z,1.40
2022-08-30T02:19:05.758Z,1.30
2022-08-30T02:20:05.770Z,1.20
2022-08-30T02:21:05.759Z,1.10
2022-08-30T02:22:05.730Z,1.60
2022-08-30T02:23:05.719Z,0.90
2022-08-30T02:24:05.699Z,1.20
2022-08-30T02:25:05.698Z,1.10
2022-08-30T02:26:05.715Z,1.40
2022-08-30T02:27:05.679Z,1.10
2022-08-30T02:28:05.671Z,1.40
2022-08-30T02:29:05.661Z,1.30
2022-08-30T02:30:05.692Z,1.60
2022-08-30T02:31:05.706Z,1.30
2022-08-30T02:32:05.703Z,1.40
2022-08-30T02:33:05.621Z,1.10
2022-08-30T02:34:05.600Z,1.10
2022-08-30T02:35:05.617Z,1.20
2022-08-30T02:36:05.580Z,1.40
2022-08-30T02:37:05.589Z,1.10
2022-08-30T02:38:05.599Z,1.40
2022-08-30T02:39:05.558Z,0.90
2022-08-30T02:40:05.573Z,1.00
2022-08-30T02:41:05.588Z,1.60
2022-08-30T02:42:05.522Z,1.00
2022-08-30T02:43:05.532Z,1.00
2022-08-30T02:44:05.522Z,1.50
2022-08-30T02:45:05.521Z,1.30
2022-08-30T02:46:05.535Z,0.90
2022-08-30T02:47:05.512Z,1.30
2022-08-30T02:48:05.483Z,1.50
2022-08-30T02:49:29.899Z,1.20
2022-08-30T02:50:06.450Z,1.00
2022-08-30T02:51:05.431Z,1.30
2022-08-30T02:52:05.441Z,1.50
2022-08-30T02:53:05.421Z,1.20
2022-08-30T02:54:05.430Z,1.30
2022-08-30T02:55:05.391Z,1.40
2022-08-30T02:56:05.380Z,1.60
2022-08-30T02:57:05.371Z,1.40
2022-08-30T02:58:05.459Z,1.20
2022-08-30T02:59:05.365Z,1.60
2022-08-30T03:00:05.352Z,1.00
2022-08-30T03:01:05.358Z,1.00
2022-08-30T03:02:05.363Z,1.40
2022-08-30T03:03:05.323Z,1.10
2022-08-30T03:04:05.462Z,1.50
2022-08-30T03:05:05.327Z,1.50
2022-08-30T03:07:01.306Z,1.80
2022-08-30T03:08:01.320Z,1.60
2022-08-30T03:09:01.286Z,1.30
2022-08-30T03:10:01.278Z,1.00
2022-08-30T03:11:01.278Z,1.20
2022-08-30T03:12:01.299Z,1.10
2022-08-30T03:13:01.299Z,1.20
2022-08-30T03:14:01.277Z,1.30
2022-08-30T03:15:01.245Z,1.30
2022-08-30T03:16:01.218Z,1.50
2022-08-30T03:17:01.218Z,1.60
2022-08-30T03:18:01.247Z,1.30
2022-08-30T03:19:01.196Z,1.20
2022-08-30T03:20:01.279Z,1.10
2022-08-30T03:21:01.173Z,1.30
2022-08-30T03:22:01.146Z,0.80
2022-08-30T03:23:01.146Z,1.60
2022-08-30T03:24:01.127Z,1.70
2022-08-30T03:25:01.178Z,1.20
2022-08-30T03:26:02.089Z,1.00
2022-08-30T03:27:01.130Z,1.30
2022-08-30T03:28:01.089Z,1.90
2022-08-30T03:29:01.090Z,1.40
2022-08-30T03:30:01.111Z,1.40
2022-08-30T03:31:01.099Z,1.50
2022-08-30T03:32:01.082Z,0.90
2022-08-30T03:33:01.049Z,1.70
2022-08-30T03:34:01.048Z,1.40
2022-08-30T03:35:01.029Z,1.20
2022-08-30T03:36:01.009Z,1.40
2022-08-30T03:37:00.998Z,1.40
2022-08-30T03:38:01.001Z,1.50
2022-08-30T03:39:00.990Z,1.20
2022-08-30T03:40:00.996Z,1.20
2022-08-30T03:41:00.968Z,1.10
2022-08-30T03:42:00.942Z,1.20
2022-08-30T03:43:00.941Z,1.40
2022-08-30T03:44:00.929Z,1.40
2022-08-30T03:45:00.918Z,1.20
2022-08-30T03:46:00.963Z,1.30
2022-08-30T03:47:00.900Z,1.20
2022-08-30T03:48:01.530Z,1.10
2022-08-30T03:49:00.879Z,1.20
2022-08-30T03:50:00.871Z,1.20
2022-08-30T03:51:00.861Z,1.40
2022-08-30T03:52:00.851Z,1.30
2022-08-30T03:53:00.843Z,1.20
2022-08-30T03:54:00.824Z,1.30
2022-08-30T03:55:00.811Z,1.10
2022-08-30T03:56:00.831Z,1.10
2022-08-30T03:57:00.828Z,1.50
2022-08-30T03:58:00.810Z,1.30
2022-08-30T03:59:00.769Z,1.30
2022-08-30T04:00:00.769Z,1.30
2022-08-30T04:01:00.795Z,1.40
2022-08-30T04:02:00.748Z,1.70
2022-08-30T04:03:00.772Z,1.30
2022-08-30T04:04:00.720Z,1.30
2022-08-30T04:05:00.700Z,1.30
2022-08-30T04:06:00.705Z,1.40
2022-08-30T04:07:00.691Z,1.10
2022-08-30T04:08:00.682Z,1.20
2022-08-30T04:09:00.692Z,1.30
2022-08-30T04:10:00.664Z,0.90
2022-08-30T04:11:00.651Z,1.30
2022-08-30T04:12:00.595Z,1.50
2022-08-30T04:13:00.651Z,1.40
2022-08-30T04:14:00.621Z,1.50
2022-08-30T04:15:00.641Z,1.50
2022-08-30T04:16:00.671Z,1.20
2022-08-30T04:17:00.581Z,1.00
2022-08-30T04:18:00.571Z,1.30
2022-08-30T04:19:00.580Z,1.10
2022-08-30T04:20:00.600Z,1.20
2022-08-30T04:21:00.490Z,1.20
2022-08-30T04:22:00.483Z,1.30
2022-08-30T04:23:00.525Z,1.60
2022-08-30T04:24:00.513Z,1.10
2022-08-30T04:25:00.481Z,1.20
2022-08-30T04:26:00.454Z,1.40
2022-08-30T04:27:00.483Z,1.20
2022-08-30T04:28:00.423Z,1.30
2022-08-30T04:29:00.414Z,1.30
2022-08-30T04:30:00.411Z,1.00
2022-08-30T04:31:00.382Z,1.00
2022-08-30T04:32:00.432Z,0.90
2022-08-30T04:33:00.362Z,1.20
2022-08-30T04:34:00.363Z,1.30
2022-08-30T04:35:00.341Z,1.20
2022-08-30T04:36:00.342Z,1.40
2022-08-30T04:37:00.324Z,1.60
2022-08-30T04:38:00.314Z,1.20
2022-08-30T04:39:00.334Z,1.30
2022-08-30T04:40:00.373Z,1.40
2022-08-30T04:41:00.295Z,1.40
2022-08-30T04:42:01.254Z,1.30
2022-08-30T04:43:00.264Z,1.50
2022-08-30T04:44:00.265Z,1.30
2022-08-30T04:45:00.254Z,1.30
2022-08-30T04:46:00.339Z,1.30
2022-08-30T04:47:00.240Z,1.30
2022-08-30T04:48:00.263Z,1.30
2022-08-30T04:49:00.223Z,1.40
2022-08-30T04:50:00.237Z,1.20
2022-08-30T04:51:00.184Z,1.30
2022-08-30T04:52:00.522Z,1.50
2022-08-30T04:53:00.203Z,1.10
2022-08-30T04:54:00.165Z,1.50
2022-08-30T04:55:00.166Z,1.10
2022-08-30T04:56:01.097Z,1.30
2022-08-30T04:57:00.135Z,1.20
2022-08-30T04:58:00.105Z,1.30
2022-08-30T04:59:00.097Z,1.40
2022-08-30T05:00:00.112Z,1.40
2022-08-30T05:01:00.186Z,1.30
2022-08-30T05:02:00.119Z,1.20
2022-08-30T05:03:00.064Z,1.60
2022-08-30T05:04:00.035Z,1.40
2022-08-30T05:05:00.028Z,1.80
2022-08-30T05:06:00.074Z,1.40
2022-08-30T05:07:00.005Z,1.40
2022-08-30T05:08:00.016Z,1.10
2022-08-30T05:08:59.995Z,1.30
2022-08-30T05:09:59.977Z,1.40
2022-08-30T05:11:00.007Z,1.70
2022-08-30T05:11:59.974Z,0.90
2022-08-30T05:12:59.947Z,1.60
2022-08-30T05:13:59.956Z,1.40
2022-08-30T05:14:59.929Z,1.20
2022-08-30T05:15:59.937Z,0.90
2022-08-30T05:16:59.897Z,1.00
2022-08-30T05:17:59.915Z,1.10
2022-08-30T05:18:59.875Z,1.50
2022-08-30T05:19:59.895Z,1.70
2022-08-30T05:20:59.863Z,1.30
2022-08-30T05:21:59.856Z,1.10
2022-08-30T05:22:59.836Z,1.50
2022-08-30T05:24:02.486Z,1.30
2022-08-30T05:24:59.816Z,1.40
2022-08-30T05:25:59.868Z,1.00
2022-08-30T05:26:59.809Z,1.30
2022-08-30T05:27:59.798Z,1.20
2022-08-30T05:28:59.807Z,1.40
2022-08-30T05:30:00.433Z,0.90
2022-08-30T05:30:59.827Z,1.60
2022-08-30T05:31:59.778Z,1.50
2022-08-30T05:32:59.748Z,1.30
2022-08-30T05:34:00.685Z,1.30
2022-08-30T05:34:59.725Z,1.30
2022-08-30T05:35:59.707Z,1.50
2022-08-30T05:36:59.707Z,1.30
2022-08-30T05:37:59.736Z,1.30
2022-08-30T05:38:59.676Z,1.40
2022-08-30T05:39:59.674Z,1.60
2022-08-30T05:40:59.662Z,1.20
2022-08-30T05:41:59.648Z,1.00
2022-08-30T05:42:59.638Z,1.50
2022-08-30T05:43:59.650Z,1.80
2022-08-30T05:44:59.629Z,2.10
2022-08-30T05:45:59.606Z,2.10
2022-08-30T05:46:59.696Z,1.60
2022-08-30T05:47:59.627Z,1.90
2022-08-30T05:48:59.626Z,2.50
2022-08-30T05:49:59.659Z,2.00
2022-08-30T05:50:59.609Z,2.10
2022-08-30T05:51:59.560Z,1.60
2022-08-30T05:52:59.530Z,2.00
2022-08-30T05:53:59.532Z,2.40
2022-08-30T05:54:59.563Z,2.00
2022-08-30T05:55:59.509Z,2.00
2022-08-30T05:56:59.502Z,1.60
2022-08-30T05:57:59.508Z,2.30
2022-08-30T05:58:59.459Z,1.90
2022-08-30T05:59:59.477Z,2.30
2022-08-30T06:00:59.468Z,1.80
2022-08-30T06:01:59.492Z,2.50
2022-08-30T06:02:59.511Z,2.30
2022-08-30T06:04:03.651Z,2.10
2022-08-30T06:04:59.437Z,2.40
2022-08-30T06:05:59.411Z,2.60
2022-08-30T06:06:59.409Z,2.00
2022-08-30T06:07:59.380Z,2.40
2022-08-30T06:08:59.362Z,2.40
2022-08-30T06:09:59.379Z,1.80
2022-08-30T06:10:59.351Z,2.30
2022-08-30T06:11:59.339Z,1.90
2022-08-30T06:12:59.511Z,2.10
2022-08-30T06:13:59.318Z,2.30
2022-08-30T06:14:59.329Z,2.10
2022-08-30T06:15:59.342Z,2.00
2022-08-30T06:16:59.269Z,2.20
2022-08-30T06:17:59.279Z,1.40
2022-08-30T06:18:59.260Z,2.00
2022-08-30T06:19:59.263Z,2.20
2022-08-30T06:20:59.564Z,2.10
2022-08-30T06:21:59.261Z,2.40
2022-08-30T06:22:59.232Z,2.20
2022-08-30T06:23:59.221Z,2.30
2022-08-30T06:24:59.208Z,2.10
2022-08-30T06:25:59.231Z,2.20
2022-08-30T06:26:59.232Z,2.10
2022-08-30T06:27:59.170Z,2.10
2022-08-30T06:28:59.152Z,1.80
2022-08-30T06:29:59.151Z,1.90
2022-08-30T06:30:59.196Z,2.00
2022-08-30T06:31:59.290Z,1.80
2022-08-30T06:32:59.120Z,1.50
2022-08-30T06:33:59.130Z,2.10
2022-08-30T06:34:59.080Z,2.20
2022-08-30T06:36:00.441Z,1.70
2022-08-30T06:36:59.094Z,2.20
2022-08-30T06:37:59.062Z,1.90
2022-08-30T06:38:59.063Z,1.90
2022-08-30T06:39:59.069Z,1.90
2022-08-30T06:40:59.053Z,1.90
2022-08-30T06:41:59.034Z,1.80
2022-08-30T06:42:59.033Z,2.40
2022-08-30T06:43:59.004Z,2.30
2022-08-30T06:44:58.982Z,2.30
2022-08-30T06:45:58.981Z,1.90
2022-08-30T06:46:59.098Z,1.70
2022-08-30T06:48:58.961Z,2.00
2022-08-30T06:49:58.943Z,2.00
2022-08-30T06:50:59.883Z,1.90
2022-08-30T06:51:58.953Z,2.30
2022-08-30T06:52:58.950Z,2.10
2022-08-30T06:53:59.598Z,2.00
2022-08-30T06:54:58.911Z,1.80
2022-08-30T06:55:58.912Z,1.60
2022-08-30T06:56:59.134Z,2.10
2022-08-30T06:57:58.851Z,3.00
2022-08-30T06:58:58.870Z,2.10
2022-08-30T06:59:58.852Z,1.90
2022-08-30T07:00:58.831Z,2.00
2022-08-30T07:01:58.862Z,2.20
2022-08-30T07:02:58.977Z,2.10
2022-08-30T07:03:58.855Z,1.90
2022-08-30T07:04:58.784Z,1.70
2022-08-30T07:05:58.843Z,1.50
2022-08-30T07:06:58.753Z,1.80
2022-08-30T07:07:58.754Z,2.40
2022-08-30T07:08:58.744Z,2.30
2022-08-30T07:09:58.722Z,2.20
2022-08-30T07:10:58.725Z,2.10
2022-08-30T07:11:58.783Z,2.20
2022-08-30T07:12:58.711Z,3.50
2022-08-30T07:13:58.682Z,2.60
2022-08-30T07:14:58.673Z,2.60
2022-08-30T07:15:58.733Z,2.50
2022-08-30T07:16:58.652Z,2.40
2022-08-30T07:17:58.694Z,2.50
2022-08-30T07:18:58.648Z,2.30
2022-08-30T07:19:58.655Z,2.20
2022-08-30T07:20:58.635Z,2.10
2022-08-30T07:21:58.615Z,2.30
2022-08-30T07:22:58.595Z,2.10
2022-08-30T07:23:58.637Z,1.90
2022-08-30T07:24:58.584Z,1.80
2022-08-30T07:25:58.562Z,2.00
2022-08-30T07:26:58.553Z,2.10
2022-08-30T07:27:58.583Z,2.50
2022-08-30T07:28:58.553Z,3.00
2022-08-30T07:29:58.523Z,2.50
2022-08-30T07:30:58.589Z,2.80
2022-08-30T07:31:58.502Z,1.90
2022-08-30T07:32:58.494Z,2.50
2022-08-30T07:33:59.476Z,2.50
2022-08-30T07:34:58.466Z,1.80
2022-08-30T07:35:58.465Z,2.20
2022-08-30T07:36:58.456Z,2.00
2022-08-30T07:37:58.474Z,2.40
2022-08-30T07:38:58.425Z,2.00
2022-08-30T07:39:58.513Z,2.20
2022-08-30T07:40:58.406Z,2.50
2022-08-30T07:41:58.393Z,2.00
2022-08-30T07:42:58.413Z,2.40
2022-08-30T07:43:58.383Z,2.40
2022-08-30T07:44:58.532Z,1.90
2022-08-30T07:45:58.431Z,1.60
2022-08-30T07:46:58.334Z,2.30
2022-08-30T07:47:58.334Z,2.20
2022-08-30T07:48:58.322Z,2.10
2022-08-30T07:49:58.336Z,2.00
2022-08-30T07:51:04.481Z,1.90
2022-08-30T07:51:59.329Z,1.80
2022-08-30T07:52:58.316Z,2.20
2022-08-30T07:53:58.285Z,2.00
2022-08-30T07:54:58.266Z,2.00
2022-08-30T07:55:58.267Z,2.10
2022-08-30T07:56:58.245Z,1.80
2022-08-30T07:57:58.311Z,1.90
2022-08-30T07:58:58.216Z,2.20
2022-08-30T07:59:58.207Z,1.90
2022-08-30T08:00:58.227Z,2.20
2022-08-30T08:01:58.239Z,2.00
2022-08-30T08:02:58.221Z,2.30
2022-08-30T08:03:58.250Z,1.90
2022-08-30T08:04:58.169Z,2.50
2022-08-30T08:05:58.145Z,2.60
2022-08-30T08:07:54.818Z,2.00
2022-08-30T08:08:54.789Z,2.00
2022-08-30T08:09:54.768Z,2.40
2022-08-30T08:10:54.809Z,2.10
2022-08-30T08:11:54.758Z,1.70
2022-08-30T08:12:54.750Z,1.40
2022-08-30T08:13:54.749Z,1.70
2022-08-30T08:14:54.759Z,1.90
2022-08-30T08:15:54.824Z,1.70
2022-08-30T08:16:54.735Z,2.30
2022-08-30T08:17:54.724Z,1.70
2022-08-30T08:18:54.693Z,1.80
2022-08-30T08:19:54.697Z,2.10
2022-08-30T08:20:54.690Z,2.00
2022-08-30T08:22:04.148Z,2.00
2022-08-30T08:22:55.712Z,1.30
2022-08-30T08:23:54.627Z,1.50
2022-08-30T08:24:54.620Z,1.90
2022-08-30T08:25:59.292Z,1.80
2022-08-30T08:26:54.650Z,1.80
2022-08-30T08:27:54.579Z,1.80
2022-08-30T08:28:54.580Z,1.30
2022-08-30T08:29:54.623Z,1.70
2022-08-30T08:30:55.329Z,1.40
2022-08-30T08:31:54.563Z,2.00
2022-08-30T08:32:54.572Z,1.60
2022-08-30T08:33:54.579Z,1.50
2022-08-30T08:34:54.551Z,1.90
2022-08-30T08:35:54.542Z,1.70
2022-08-30T08:36:54.512Z,1.80
2022-08-30T08:37:54.535Z,2.00
2022-08-30T08:38:54.496Z,2.10
2022-08-30T08:39:54.460Z,1.60
2022-08-30T08:40:54.460Z,1.60
2022-08-30T08:41:54.491Z,1.80
2022-08-30T08:42:54.450Z,1.50
2022-08-30T08:43:54.423Z,2.10
2022-08-30T08:44:55.433Z,1.90
2022-08-30T08:45:54.430Z,2.40
2022-08-30T08:46:55.043Z,2.00
2022-08-30T08:47:54.392Z,1.80
2022-08-30T08:49:01.657Z,2.10
2022-08-30T08:49:55.365Z,1.80
2022-08-30T08:50:54.373Z,1.90
2022-08-30T08:51:54.384Z,1.50
2022-08-30T08:52:55.006Z,2.20
2022-08-30T08:53:54.375Z,1.80
2022-08-30T08:54:54.338Z,2.20
2022-08-30T08:55:54.313Z,2.00
2022-08-30T08:56:54.342Z,1.80
2022-08-30T08:57:54.303Z,2.10
2022-08-30T08:58:55.221Z,1.80
2022-08-30T08:59:54.252Z,1.90
2022-08-30T09:00:54.271Z,2.30
2022-08-30T09:01:54.301Z,1.60
2022-08-30T09:02:55.951Z,1.80
2022-08-30T09:03:54.234Z,1.90
2022-08-30T09:04:54.253Z,1.40
2022-08-30T09:05:54.213Z,1.80
2022-08-30T09:06:54.197Z,1.60
2022-08-30T09:07:54.212Z,1.90
2022-08-30T09:08:54.187Z,1.50
2022-08-30T09:09:54.162Z,1.90
2022-08-30T09:10:54.190Z,2.10
2022-08-30T09:11:54.182Z,1.90
2022-08-30T09:12:59.337Z,2.00
2022-08-30T09:13:55.153Z,1.90
2022-08-30T09:14:54.443Z,2.20
2022-08-30T09:15:55.086Z,2.30
2022-08-30T09:16:54.091Z,1.90
2022-08-30T09:17:54.116Z,2.00
2022-08-30T09:18:54.772Z,1.90
2022-08-30T09:19:54.079Z,2.30
2022-08-30T09:20:54.054Z,1.80
2022-08-30T09:21:54.045Z,1.90
2022-08-30T09:22:54.279Z,2.40
2022-08-30T09:23:54.025Z,1.60
2022-08-30T09:24:54.025Z,1.60
2022-08-30T09:25:54.016Z,2.00
2022-08-30T09:26:53.987Z,1.90
2022-08-30T09:27:53.974Z,1.40
2022-08-30T09:28:53.986Z,1.70
2022-08-30T09:29:53.962Z,2.00
2022-08-30T09:30:53.988Z,2.00
2022-08-30T09:32:10.118Z,1.70
2022-08-30T09:32:54.914Z,2.20
2022-08-30T09:33:53.950Z,2.10
2022-08-30T09:34:53.914Z,1.90
2022-08-30T09:35:53.979Z,2.40
2022-08-30T09:36:53.917Z,2.00
2022-08-30T09:37:53.896Z,2.00
2022-08-30T09:38:53.906Z,1.70
2022-08-30T09:39:54.124Z,1.80
2022-08-30T09:40:53.845Z,1.90
2022-08-30T09:41:53.868Z,2.10
2022-08-30T09:42:53.826Z,2.10
2022-08-30T09:43:53.814Z,1.80
2022-08-30T09:44:53.935Z,1.80
2022-08-30T09:45:53.797Z,2.00
2022-08-30T09:46:53.774Z,1.70
2022-08-30T09:47:53.767Z,2.10
2022-08-30T09:48:53.786Z,1.90
2022-08-30T09:49:53.767Z,1.90
2022-08-30T09:50:54.987Z,1.90
2022-08-30T09:51:53.745Z,2.00
2022-08-30T09:52:55.375Z,2.30
2022-08-30T09:54:16.730Z,1.70
2022-08-30T09:54:54.707Z,1.40
2022-08-30T09:55:53.767Z,2.00
2022-08-30T09:56:53.698Z,1.90
2022-08-30T09:57:53.665Z,1.80
2022-08-30T09:58:53.687Z,1.80
2022-08-30T09:59:53.635Z,2.10
2022-08-30T10:00:53.686Z,1.70
2022-08-30T10:01:53.635Z,2.10
2022-08-30T10:02:53.605Z,1.90
2022-08-30T10:03:53.625Z,1.80
2022-08-30T10:04:53.594Z,1.80
2022-08-30T10:05:53.638Z,2.30
2022-08-30T10:06:53.595Z,1.70
2022-08-30T10:07:53.824Z,2.10
2022-08-30T10:08:53.569Z,1.60
2022-08-30T10:09:53.546Z,1.70
2022-08-30T10:10:53.537Z,2.00
2022-08-30T10:11:53.548Z,2.00
2022-08-30T10:12:53.537Z,2.30
2022-08-30T10:13:53.518Z,2.00
2022-08-30T10:14:53.516Z,1.60
2022-08-30T10:15:53.545Z,1.80
2022-08-30T10:16:53.529Z,2.20
2022-08-30T10:17:53.459Z,1.60
2022-08-30T10:18:53.470Z,2.00
2022-08-30T10:19:53.454Z,2.00
2022-08-30T10:20:53.448Z,1.60
2022-08-30T10:21:53.526Z,1.30
2022-08-30T10:22:53.419Z,1.70
2022-08-30T10:23:53.488Z,1.90
2022-08-30T10:24:53.396Z,1.80
2022-08-30T10:25:53.385Z,1.80
2022-08-30T10:26:53.375Z,1.80
2022-08-30T10:27:53.387Z,1.50
2022-08-30T10:28:53.361Z,1.80
2022-08-30T10:29:53.329Z,2.20
2022-08-30T10:30:53.328Z,1.80
2022-08-30T10:31:53.339Z,1.80
2022-08-30T10:32:53.307Z,1.70
2022-08-30T10:33:53.308Z,1.50
2022-08-30T10:34:53.289Z,2.00
2022-08-30T10:35:53.316Z,1.90
2022-08-30T10:36:53.371Z,1.60
2022-08-30T10:37:53.265Z,1.80
2022-08-30T10:38:53.230Z,1.50
2022-08-30T10:39:53.279Z,1.60
2022-08-30T10:40:53.279Z,1.70
2022-08-30T10:41:53.277Z,1.80
2022-08-30T10:42:53.257Z,1.60
2022-08-30T10:43:53.188Z,2.00
2022-08-30T10:44:53.190Z,1.50
2022-08-30T10:45:53.160Z,1.90
2022-08-30T10:46:53.187Z,1.50
2022-08-30T10:47:53.150Z,1.80
2022-08-30T10:48:53.130Z,1.70
2022-08-30T10:49:53.131Z,1.80
2022-08-30T10:50:53.120Z,1.50
2022-08-30T10:51:53.124Z,1.40
2022-08-30T10:52:53.126Z,1.90
2022-08-30T10:53:53.090Z,1.80
2022-08-30T10:54:53.122Z,1.70
2022-08-30T10:55:53.068Z,2.00
2022-08-30T10:56:53.047Z,2.00
2022-08-30T10:57:53.100Z,1.90
2022-08-30T10:58:53.060Z,1.70
2022-08-30T10:59:53.029Z,1.80
2022-08-30T11:00:53.107Z,1.70
2022-08-30T11:01:53.044Z,1.80
2022-08-30T11:02:53.011Z,1.80
2022-08-30T11:03:53.028Z,1.80
2022-08-30T11:04:53.040Z,2.30
2022-08-30T11:05:53.653Z,1.90
2022-08-30T11:06:54.066Z,1.80
2022-08-30T11:07:52.952Z,2.00
2022-08-30T11:08:53.109Z,1.90
2022-08-30T11:09:52.937Z,2.00
2022-08-30T11:10:52.966Z,2.30
2022-08-30T11:11:53.858Z,1.90
2022-08-30T11:12:52.900Z,1.80
2022-08-30T11:13:56.993Z,1.50
2022-08-30T11:14:52.901Z,1.80
2022-08-30T11:15:52.878Z,2.00
2022-08-30T11:16:52.842Z,1.70
2022-08-30T11:17:52.870Z,1.50
2022-08-30T11:18:52.855Z,1.60
2022-08-30T11:19:52.890Z,1.80
2022-08-30T11:20:52.820Z,1.40
2022-08-30T11:21:52.867Z,1.80
2022-08-30T11:22:52.782Z,1.50
2022-08-30T11:23:52.773Z,1.90
2022-08-30T11:24:52.792Z,1.50
2022-08-30T11:25:57.636Z,1.90
2022-08-30T11:26:53.741Z,1.80
2022-08-30T11:27:52.732Z,1.60
2022-08-30T11:28:52.712Z,1.90
2022-08-30T11:29:52.712Z,2.00
2022-08-30T11:30:52.713Z,1.60
2022-08-30T11:31:52.713Z,1.60
2022-08-30T11:32:52.707Z,1.80
2022-08-30T11:33:52.672Z,1.30
2022-08-30T11:34:52.663Z,1.70
2022-08-30T11:35:52.694Z,1.80
2022-08-30T11:36:52.669Z,2.00
2022-08-30T11:37:52.622Z,1.70
2022-08-30T11:38:52.625Z,2.20
2022-08-30T11:39:52.605Z,1.80
2022-08-30T11:40:52.592Z,1.70
2022-08-30T11:41:52.613Z,1.90
2022-08-30T11:42:52.581Z,1.80
2022-08-30T11:43:53.525Z,1.90
2022-08-30T11:44:52.617Z,1.70
2022-08-30T11:45:52.791Z,1.80
2022-08-30T11:46:52.560Z,1.90
2022-08-30T11:47:52.656Z,1.60
2022-08-30T11:48:54.449Z,1.70
2022-08-30T11:49:52.501Z,1.60
2022-08-30T11:50:52.506Z,1.60
2022-08-30T11:51:58.229Z,2.10
2022-08-30T11:52:53.483Z,1.90
2022-08-30T11:53:52.479Z,1.90
2022-08-30T11:54:53.410Z,1.80
2022-08-30T11:55:52.456Z,2.50
2022-08-30T11:56:52.442Z,1.90
2022-08-30T11:57:52.461Z,1.70
2022-08-30T11:58:52.422Z,1.70
2022-08-30T11:59:52.409Z,2.00
2022-08-30T12:00:52.851Z,1.80
2022-08-30T12:01:52.512Z,1.60
2022-08-30T12:02:52.488Z,2.00
2022-08-30T12:03:52.384Z,2.30
2022-08-30T12:04:52.349Z,2.00
2022-08-30T12:05:52.361Z,2.20
2022-08-30T12:06:52.343Z,1.90
2022-08-30T12:07:52.425Z,2.10
2022-08-30T12:08:56.461Z,1.90
2022-08-30T12:09:53.316Z,2.00
2022-08-30T12:10:52.274Z,1.70
2022-08-30T12:11:52.315Z,1.80
2022-08-30T12:12:52.926Z,1.70
2022-08-30T12:13:52.282Z,2.00
2022-08-30T12:14:52.245Z,1.80
2022-08-30T12:15:52.428Z,1.90
2022-08-30T12:16:52.263Z,2.00
2022-08-30T12:17:52.370Z,2.00
2022-08-30T12:18:52.227Z,1.70
2022-08-30T12:19:52.184Z,2.10
2022-08-30T12:20:52.263Z,1.80
2022-08-30T12:21:52.195Z,1.90
2022-08-30T12:22:52.303Z,1.90
2022-08-30T12:23:52.177Z,2.10
2022-08-30T12:24:52.127Z,1.50
2022-08-30T12:25:52.200Z,1.80
2022-08-30T12:26:52.126Z,1.90
2022-08-30T12:27:52.106Z,2.10
2022-08-30T12:28:52.096Z,1.70
2022-08-30T12:29:52.095Z,2.10
2022-08-30T12:30:52.082Z,1.50
2022-08-30T12:31:52.109Z,2.00
2022-08-30T12:32:52.066Z,1.50
2022-08-30T12:33:52.046Z,2.00
2022-08-30T12:34:52.065Z,2.00
2022-08-30T12:35:52.017Z,1.80
2022-08-30T12:36:52.056Z,2.00
2022-08-30T12:37:52.009Z,1.70
2022-08-30T12:38:51.996Z,1.60
2022-08-30T12:39:53.749Z,2.20
2022-08-30T12:40:52.018Z,1.70
2022-08-30T12:41:51.999Z,1.70
2022-08-30T12:42:52.003Z,1.60
2022-08-30T12:43:51.950Z,1.70
2022-08-30T12:44:51.949Z,1.60
2022-08-30T12:45:52.008Z,1.60
2022-08-30T12:46:54.854Z,1.80
2022-08-30T12:47:52.906Z,1.60
2022-08-30T12:48:51.930Z,1.90
2022-08-30T12:49:51.926Z,1.70
2022-08-30T12:50:51.909Z,1.80
2022-08-30T12:51:52.017Z,2.00
2022-08-30T12:52:52.819Z,1.90
2022-08-30T12:53:51.849Z,1.80
2022-08-30T12:54:51.825Z,2.00
2022-08-30T12:55:51.897Z,2.20
2022-08-30T12:56:51.837Z,1.90
2022-08-30T12:57:51.830Z,2.10
2022-08-30T12:58:52.808Z,1.70
2022-08-30T12:59:56.878Z,1.70
2022-08-30T13:00:53.277Z,1.70
2022-08-30T13:01:51.859Z,2.20
2022-08-30T13:02:51.777Z,1.80
2022-08-30T13:03:51.748Z,1.80
2022-08-30T13:04:51.739Z,2.00
2022-08-30T13:05:53.000Z,1.70
2022-08-30T13:06:51.700Z,2.00
2022-08-30T13:08:48.462Z,1.60
2022-08-30T13:09:48.457Z,1.70
2022-08-30T13:10:48.398Z,1.70
2022-08-30T13:11:48.388Z,1.60
2022-08-30T13:12:48.388Z,1.90
2022-08-30T13:13:52.344Z,1.60
2022-08-30T13:14:48.357Z,1.90
2022-08-30T13:15:48.349Z,1.70
2022-08-30T13:16:49.345Z,1.70
2022-08-30T13:17:48.771Z,2.10
2022-08-30T13:18:48.335Z,1.70
2022-08-30T13:19:48.339Z,2.00
2022-08-30T13:20:48.331Z,1.70
2022-08-30T13:21:48.289Z,1.90